Overland Park, Kansas
Current Conditions -  °F | °C
As of 9:53 PM on Saturday 24 Jan 2015 (Local Time) from KOJC Reporting Station
Light Rain Light Rain  
Wind Chill: 44°   Ceiling: 4300
Heat Index: 48°   Visibility: 6mi
Dew Point: 43°   Wind: 8mph
Humidity: 83%   Direction: 270°W
Pressure: 29.73"   Gusts: NA
Location:  38.98°N, 94.67°W
Report Text: KOJC 250353Z AUTO 27007KT 6SM -RA OVC043 09/06 A2973 RMK AO2 PK WND 27027/0305 RAB0258 SLP070 P0003 T00890061
Loading
Personal Weather Stations






























Interactive Weather Map New forecast layout! Learn more

10-Day Weather Forecast

Advertisements
Track Severe Weather on mobile